createdAt,value
2019-04-03T00:01:15.477Z,8.80
2019-04-03T00:03:41.683Z,8.80
2019-04-03T00:06:07.957Z,8.80
2019-04-03T00:08:36.140Z,8.80
2019-04-03T00:11:02.535Z,8.70
2019-04-03T00:13:28.730Z,8.70
2019-04-03T00:15:54.861Z,8.60
2019-04-03T00:18:21.075Z,8.50
2019-04-03T00:20:48.758Z,8.50
2019-04-03T00:23:15.210Z,8.50
2019-04-03T00:25:41.460Z,8.50
2019-04-03T00:28:07.586Z,8.50
2019-04-03T00:30:33.790Z,8.50
2019-04-03T00:32:59.903Z,8.40
2019-04-03T00:35:26.205Z,8.40
2019-04-03T00:37:53.591Z,8.40
2019-04-03T00:40:20.061Z,8.40
2019-04-03T00:42:46.157Z,8.40
2019-04-03T00:45:13.812Z,8.30
2019-04-03T00:47:39.970Z,8.40
2019-04-03T00:50:06.684Z,8.40
2019-04-03T00:52:32.894Z,8.30
2019-04-03T00:54:58.987Z,8.40
2019-04-03T00:57:26.290Z,8.30
2019-04-03T00:59:53.093Z,8.20
2019-04-03T01:02:19.301Z,8.10
2019-04-03T01:04:45.448Z,8.10
2019-04-03T01:07:11.549Z,7.90
2019-04-03T01:09:37.672Z,7.80
2019-04-03T01:12:03.778Z,7.70
2019-04-03T01:14:31.643Z,7.70
2019-04-03T01:16:58.050Z,7.60
2019-04-03T01:19:24.238Z,7.60
2019-04-03T01:21:50.345Z,7.50
2019-04-03T01:24:16.491Z,7.40
2019-04-03T01:26:42.599Z,7.40
2019-04-03T01:29:08.730Z,7.40
2019-04-03T01:31:35.020Z,7.40
2019-04-03T01:34:01.179Z,7.40
2019-04-03T01:36:27.302Z,7.30
2019-04-03T01:38:53.397Z,7.30
2019-04-03T01:41:21.275Z,7.30
2019-04-03T01:43:47.530Z,7.30
2019-04-03T01:46:13.668Z,7.30
2019-04-03T01:48:39.815Z,7.30
2019-04-03T01:51:05.930Z,7.30
2019-04-03T01:53:32.694Z,7.20
2019-04-03T01:55:59.541Z,7.20
2019-04-03T01:58:25.915Z,7.20
2019-04-03T02:00:52.213Z,7.20
2019-04-03T02:03:18.599Z,7.20
2019-04-03T02:05:44.791Z,7.10
2019-04-03T02:08:10.900Z,7.10
2019-04-03T02:10:37.125Z,7.10
2019-04-03T02:13:03.332Z,7.10
2019-04-03T02:15:29.792Z,7.10
2019-04-03T02:17:55.993Z,7.00
2019-04-03T02:20:22.339Z,7.00
2019-04-03T02:22:48.536Z,7.00
2019-04-03T02:25:14.740Z,7.00
2019-04-03T02:27:40.870Z,7.00
2019-04-03T02:30:12.171Z,7.00
2019-04-03T02:32:35.750Z,7.00
2019-04-03T02:35:06.496Z,7.00
2019-04-03T02:37:32.411Z,7.00
2019-04-03T02:40:00.482Z,7.00
2019-04-03T02:42:27.565Z,7.00
2019-04-03T02:44:53.717Z,7.00
2019-04-03T02:47:19.912Z,7.10
2019-04-03T02:49:46.114Z,7.10
2019-04-03T02:52:12.389Z,7.10
2019-04-03T02:54:42.618Z,7.00
2019-04-03T02:57:08.725Z,7.00
2019-04-03T02:59:35.179Z,7.00
2019-04-03T03:02:01.682Z,7.00
2019-04-03T03:04:28.009Z,7.00
2019-04-03T03:06:54.243Z,7.00
2019-04-03T03:09:21.647Z,7.00
2019-04-03T03:11:48.356Z,7.00
2019-04-03T03:14:15.203Z,7.00
2019-04-03T03:16:43.237Z,7.10
2019-04-03T03:19:11.867Z,7.10
2019-04-03T03:21:38.397Z,7.10
2019-04-03T03:24:04.726Z,7.10
2019-04-03T03:26:31.411Z,7.10
2019-04-03T03:29:14.214Z,7.10
2019-04-03T03:31:56.436Z,7.10
2019-04-03T03:34:00.937Z,7.00
2019-04-03T03:36:26.372Z,7.00
2019-04-03T03:38:53.820Z,7.00
2019-04-03T03:41:23.067Z,7.00
2019-04-03T03:43:48.477Z,7.00
2019-04-03T03:46:15.028Z,7.00
2019-04-03T03:48:43.963Z,7.00
2019-04-03T03:51:11.341Z,7.10
2019-04-03T03:53:38.156Z,7.10
2019-04-03T03:56:04.623Z,7.10
2019-04-03T03:58:31.140Z,7.00
2019-04-03T04:00:59.763Z,7.00
2019-04-03T04:03:25.962Z,7.00
2019-04-03T04:05:55.563Z,7.10
2019-04-03T04:08:20.503Z,7.10
2019-04-03T04:10:46.949Z,7.10
2019-04-03T04:13:15.917Z,7.10
2019-04-03T04:15:42.658Z,7.10
2019-04-03T04:18:08.772Z,7.10
2019-04-03T04:20:38.104Z,7.10
2019-04-03T04:23:03.468Z,7.10
2019-04-03T04:25:31.019Z,7.10
2019-04-03T04:27:58.428Z,7.10
2019-04-03T04:30:24.546Z,7.10
2019-04-03T04:32:50.855Z,7.10
2019-04-03T04:35:17.489Z,7.10
2019-04-03T04:37:45.352Z,7.10
2019-04-03T04:40:12.087Z,7.10
2019-04-03T04:42:38.290Z,7.20
2019-04-03T04:45:05.818Z,7.20
2019-04-03T04:47:32.042Z,7.10
2019-04-03T04:49:58.263Z,7.10
2019-04-03T04:52:25.770Z,7.10
2019-04-03T04:54:55.323Z,7.10
2019-04-03T04:57:21.419Z,7.10
2019-04-03T04:59:47.566Z,7.10
2019-04-03T05:02:13.687Z,7.10
2019-04-03T05:04:40.160Z,7.10
2019-04-03T05:07:06.455Z,7.10
2019-04-03T05:09:34.813Z,7.10
2019-04-03T05:12:00.874Z,7.10
2019-04-03T05:14:27.320Z,7.00
2019-04-03T05:16:54.087Z,7.00
2019-04-03T05:19:21.663Z,7.00
2019-04-03T05:21:47.900Z,7.00
2019-04-03T05:24:14.367Z,7.00
2019-04-03T05:26:40.649Z,7.00
2019-04-03T05:29:06.755Z,7.00
2019-04-03T05:31:33.016Z,7.00
2019-04-03T05:33:59.242Z,7.00
2019-04-03T05:36:25.352Z,7.00
2019-04-03T05:38:53.432Z,7.00
2019-04-03T05:41:22.394Z,7.10
2019-04-03T05:43:48.503Z,7.10
2019-04-03T05:46:14.780Z,7.10
2019-04-03T05:48:41.408Z,7.20
2019-04-03T05:51:07.654Z,7.20
2019-04-03T05:53:36.729Z,7.20
2019-04-03T05:56:02.015Z,7.30
2019-04-03T05:58:28.485Z,7.30
2019-04-03T06:01:04.510Z,7.30
2019-04-03T06:03:37.669Z,7.40
2019-04-03T06:05:50.846Z,7.40
2019-04-03T06:08:19.336Z,7.50
2019-04-03T06:10:45.404Z,7.50
2019-04-03T06:13:11.512Z,7.50
2019-04-03T06:15:37.626Z,7.50
2019-04-03T06:18:03.926Z,7.50
2019-04-03T06:20:30.048Z,7.50
2019-04-03T06:22:56.329Z,7.50
2019-04-03T06:25:22.469Z,7.50
2019-04-03T06:27:48.703Z,7.60
2019-04-03T06:30:15.528Z,7.60
2019-04-03T06:32:41.752Z,7.70
2019-04-03T06:35:08.453Z,7.80
2019-04-03T06:37:34.606Z,7.80
2019-04-03T06:40:02.870Z,7.90
2019-04-03T06:42:28.739Z,7.90
2019-04-03T06:44:54.904Z,8.00
2019-04-03T06:47:21.237Z,8.00
2019-04-03T06:49:47.342Z,8.00
2019-04-03T06:52:13.446Z,8.00
2019-04-03T06:54:39.567Z,8.00
2019-04-03T06:57:05.735Z,8.00
2019-04-03T06:59:31.869Z,8.00
2019-04-03T07:01:58.162Z,8.10
2019-04-03T07:04:24.284Z,8.10
2019-04-03T07:06:50.412Z,8.20
2019-04-03T07:09:23.452Z,8.30
2019-04-03T07:11:44.699Z,8.30
2019-04-03T07:14:11.118Z,8.30
2019-04-03T07:16:38.529Z,8.40
2019-04-03T07:19:06.028Z,8.50
2019-04-03T07:21:33.187Z,8.60
2019-04-03T07:24:00.693Z,8.80
2019-04-03T07:26:27.530Z,8.90
2019-04-03T07:28:53.789Z,9.00
2019-04-03T07:31:19.977Z,9.10
2019-04-03T07:33:46.189Z,9.10
2019-04-03T07:36:12.385Z,9.10
2019-04-03T07:38:41.655Z,9.10
2019-04-03T07:41:10.460Z,9.10
2019-04-03T07:43:38.048Z,9.10
2019-04-03T07:46:04.176Z,9.30
2019-04-03T07:48:33.061Z,9.50
2019-04-03T07:50:58.391Z,9.70
2019-04-03T07:53:26.796Z,9.70
2019-04-03T07:55:56.408Z,9.70
2019-04-03T07:58:25.157Z,9.70
2019-04-03T08:00:50.751Z,9.70
2019-04-03T08:03:20.270Z,9.80
2019-04-03T08:05:45.294Z,9.90
2019-04-03T08:08:11.404Z,10.00
2019-04-03T08:10:37.919Z,10.00
2019-04-03T08:13:06.228Z,10.00
2019-04-03T08:15:32.923Z,9.90
2019-04-03T08:17:59.419Z,9.90
2019-04-03T08:20:26.389Z,9.80
2019-04-03T08:22:52.741Z,9.70
2019-04-03T08:25:18.996Z,9.70
2019-04-03T08:27:45.088Z,9.70
2019-04-03T08:30:11.983Z,9.80
2019-04-03T08:32:38.138Z,9.90
2019-04-03T08:35:18.843Z,10.00
2019-04-03T08:37:34.364Z,10.20
2019-04-03T08:40:00.776Z,10.30
2019-04-03T08:42:28.002Z,10.30
2019-04-03T08:44:54.944Z,10.40
2019-04-03T08:47:21.076Z,10.50
2019-04-03T08:49:47.265Z,10.70
2019-04-03T08:52:14.822Z,10.90
2019-04-03T08:54:42.324Z,11.00
2019-04-03T08:57:08.842Z,11.00
2019-04-03T08:59:35.083Z,11.00
2019-04-03T09:02:01.687Z,10.90
2019-04-03T09:04:27.802Z,10.90
2019-04-03T09:06:54.638Z,10.90
2019-04-03T09:09:21.192Z,10.90
2019-04-03T09:11:47.292Z,10.80
2019-04-03T09:14:13.407Z,10.70
2019-04-03T09:16:39.519Z,10.50
2019-04-03T09:19:05.638Z,10.40
2019-04-03T09:21:32.612Z,10.30
2019-04-03T09:23:59.070Z,10.30
2019-04-03T09:26:25.442Z,10.30
2019-04-03T09:28:51.884Z,10.50
2019-04-03T09:31:19.876Z,10.60
2019-04-03T09:33:46.266Z,10.70
2019-04-03T09:36:12.470Z,10.70
2019-04-03T09:38:40.679Z,10.70
2019-04-03T09:41:06.588Z,10.90
2019-04-03T09:43:33.227Z,11.10
2019-04-03T09:46:00.697Z,11.30
2019-04-03T09:48:27.224Z,11.50
2019-04-03T09:50:53.374Z,11.70
2019-04-03T09:53:19.687Z,11.80
2019-04-03T09:55:45.843Z,11.80
2019-04-03T09:58:11.981Z,11.80
2019-04-03T10:00:41.222Z,12.10
2019-04-03T10:03:06.435Z,12.40
2019-04-03T10:05:32.723Z,12.30
2019-04-03T10:07:59.325Z,12.50
2019-04-03T10:10:26.358Z,12.70
2019-04-03T10:12:54.233Z,12.90
2019-04-03T10:15:21.022Z,13.00
2019-04-03T10:17:47.147Z,12.90
2019-04-03T10:20:15.075Z,12.80
2019-04-03T10:22:42.103Z,12.70
2019-04-03T10:25:08.603Z,12.50
2019-04-03T10:27:34.840Z,12.40
2019-04-03T10:30:01.040Z,12.30
2019-04-03T10:32:28.109Z,12.40
2019-04-03T10:34:57.138Z,12.40
2019-04-03T10:37:22.710Z,12.40
2019-04-03T10:39:51.763Z,12.50
2019-04-03T10:42:16.880Z,12.50
2019-04-03T10:44:43.254Z,12.60
2019-04-03T10:47:09.520Z,12.60
2019-04-03T10:49:35.651Z,12.70
2019-04-03T10:52:02.101Z,12.80
2019-04-03T10:54:28.375Z,12.80
2019-04-03T10:56:54.658Z,12.80
2019-04-03T10:59:20.761Z,12.90
2019-04-03T11:01:47.086Z,13.00
2019-04-03T11:04:13.222Z,13.40
2019-04-03T11:06:39.458Z,13.80
2019-04-03T11:09:07.174Z,14.00
2019-04-03T11:11:33.435Z,14.00
2019-04-03T11:14:03.044Z,14.00
2019-04-03T11:16:29.544Z,13.90
2019-04-03T11:19:00.149Z,13.80
2019-04-03T11:21:23.743Z,13.80
2019-04-03T11:23:50.172Z,13.80
2019-04-03T11:26:18.395Z,13.90
2019-04-03T11:28:44.775Z,14.00
2019-04-03T11:31:23.954Z,14.20
2019-04-03T11:33:39.438Z,14.30
2019-04-03T11:36:05.654Z,14.30
2019-04-03T11:38:32.264Z,14.30
2019-04-03T11:40:58.466Z,14.10
2019-04-03T11:43:24.767Z,13.90
2019-04-03T11:45:51.095Z,13.70
2019-04-03T11:48:17.791Z,13.50
2019-04-03T11:50:44.360Z,13.40
2019-04-03T11:53:11.492Z,13.30
2019-04-03T11:55:37.972Z,13.20
2019-04-03T11:58:04.689Z,13.20
2019-04-03T12:00:45.335Z,13.10
2019-04-03T12:03:12.146Z,13.10
2019-04-03T12:05:38.383Z,13.30
2019-04-03T12:08:04.687Z,13.90
2019-04-03T12:10:30.986Z,14.70
2019-04-03T12:12:57.202Z,15.30
2019-04-03T12:15:23.675Z,15.40
2019-04-03T12:17:50.342Z,15.30
2019-04-03T12:20:17.266Z,15.00
2019-04-03T12:22:44.253Z,14.50
2019-04-03T12:25:10.954Z,14.00
2019-04-03T12:27:37.134Z,13.10
2019-04-03T12:30:07.794Z,11.90
2019-04-03T12:32:39.372Z,10.90
2019-04-03T12:35:07.297Z,10.10
2019-04-03T12:37:34.821Z,9.40
2019-04-03T12:40:01.516Z,9.00
2019-04-03T12:42:28.843Z,8.60
2019-04-03T12:44:55.362Z,8.40
2019-04-03T12:47:22.213Z,8.30
2019-04-03T12:49:48.474Z,8.10
2019-04-03T12:52:14.703Z,8.10
2019-04-03T12:54:41.294Z,8.10
2019-04-03T12:57:07.768Z,8.20
2019-04-03T12:59:33.934Z,8.20
2019-04-03T13:02:00.546Z,8.30
2019-04-03T13:04:30.192Z,8.30
2019-04-03T13:06:54.876Z,8.50
2019-04-03T13:09:20.991Z,9.30
2019-04-03T13:11:49.746Z,10.40
2019-04-03T13:14:23.727Z,11.00
2019-04-03T13:16:46.308Z,11.40
2019-04-03T13:19:11.914Z,11.70
2019-04-03T13:21:39.895Z,12.00
2019-04-03T13:24:06.364Z,12.70
2019-04-03T13:26:32.725Z,13.50
2019-04-03T13:28:59.080Z,13.90
2019-04-03T13:31:25.329Z,14.50
2019-04-03T13:33:51.455Z,15.20
2019-04-03T13:36:18.688Z,15.90
2019-04-03T13:38:46.164Z,16.20
2019-04-03T13:41:12.566Z,16.30
2019-04-03T13:43:39.049Z,16.20
2019-04-03T13:46:05.867Z,16.00
2019-04-03T13:48:32.099Z,15.70
2019-04-03T13:50:58.548Z,15.50
2019-04-03T13:53:25.817Z,15.10
2019-04-03T13:55:52.396Z,14.80
2019-04-03T13:58:20.478Z,14.60
2019-04-03T14:00:57.863Z,14.30
2019-04-03T14:03:15.865Z,14.10
2019-04-03T14:05:44.753Z,14.00
2019-04-03T14:08:12.501Z,13.80
2019-04-03T14:10:38.984Z,13.60
2019-04-03T14:13:05.222Z,13.50
2019-04-03T14:15:31.371Z,13.80
2019-04-03T14:17:59.174Z,14.40
2019-04-03T14:20:26.507Z,14.60
2019-04-03T14:22:53.123Z,14.60
2019-04-03T14:25:22.552Z,14.80
2019-04-03T14:27:47.724Z,15.10
2019-04-03T14:30:14.415Z,15.40
2019-04-03T14:32:41.161Z,15.50
2019-04-03T14:35:33.698Z,15.50
2019-04-03T14:37:36.426Z,15.50
2019-04-03T14:40:05.846Z,15.80
2019-04-03T14:42:32.088Z,15.90
2019-04-03T14:44:58.300Z,16.10
2019-04-03T14:47:27.164Z,16.40
2019-04-03T14:49:52.821Z,16.60
2019-04-03T14:52:19.675Z,17.20
2019-04-03T14:54:46.315Z,17.70
2019-04-03T14:57:19.818Z,17.80
2019-04-03T14:59:41.070Z,17.30
2019-04-03T15:02:07.913Z,16.90
2019-04-03T15:04:37.134Z,16.50
2019-04-03T15:07:08.052Z,16.40
2019-04-03T15:09:30.893Z,16.40
2019-04-03T15:11:57.066Z,16.30
2019-04-03T15:14:23.618Z,16.10
2019-04-03T15:16:49.826Z,15.90
2019-04-03T15:19:16.031Z,15.70
2019-04-03T15:21:42.150Z,15.60
2019-04-03T15:24:08.940Z,15.50
2019-04-03T15:26:36.383Z,15.40
2019-04-03T15:29:03.577Z,15.20
2019-04-03T15:31:30.021Z,15.00
2019-04-03T15:33:56.745Z,14.80
2019-04-03T15:36:22.998Z,14.60
2019-04-03T15:38:49.208Z,14.30
2019-04-03T15:41:15.339Z,14.10
2019-04-03T15:43:41.857Z,13.90
2019-04-03T15:46:08.613Z,13.70
2019-04-03T15:48:35.599Z,13.60
2019-04-03T15:51:02.111Z,13.50
2019-04-03T15:53:28.445Z,13.30
2019-04-03T15:55:54.762Z,13.10
2019-04-03T15:58:21.050Z,12.90
2019-04-03T16:00:47.396Z,12.60
2019-04-03T16:03:14.963Z,12.30
2019-04-03T16:05:41.807Z,11.70
2019-04-03T16:08:07.936Z,10.80
2019-04-03T16:10:34.430Z,9.90
2019-04-03T16:13:00.662Z,9.30
2019-04-03T16:15:27.763Z,9.00
2019-04-03T16:17:54.367Z,8.80
2019-04-03T16:20:20.670Z,8.70
2019-04-03T16:22:47.071Z,8.70
2019-04-03T16:25:16.150Z,8.80
2019-04-03T16:27:42.037Z,8.90
2019-04-03T16:30:08.749Z,9.00
2019-04-03T16:32:35.288Z,9.20
2019-04-03T16:35:01.644Z,9.30
2019-04-03T16:37:27.831Z,9.50
2019-04-03T16:39:54.078Z,9.60
2019-04-03T16:42:20.356Z,9.90
2019-04-03T16:44:46.578Z,10.00
2019-04-03T16:47:14.403Z,10.10
2019-04-03T16:49:40.801Z,10.20
2019-04-03T16:52:07.049Z,10.30
2019-04-03T16:54:33.831Z,10.40
2019-04-03T16:57:03.424Z,10.40
2019-04-03T16:59:28.903Z,10.40
2019-04-03T17:01:55.045Z,10.40
2019-04-03T17:04:26.096Z,10.40
2019-04-03T17:06:50.592Z,10.40
2019-04-03T17:09:16.748Z,10.30
2019-04-03T17:11:44.866Z,10.30
2019-04-03T17:14:11.022Z,10.30
2019-04-03T17:16:38.262Z,10.30
2019-04-03T17:19:05.547Z,10.30
2019-04-03T17:21:36.794Z,10.40
2019-04-03T17:24:03.228Z,10.40
2019-04-03T17:26:29.631Z,10.30
2019-04-03T17:29:03.832Z,10.20
2019-04-03T17:31:24.478Z,10.20
2019-04-03T17:33:50.716Z,10.20
2019-04-03T17:36:19.168Z,10.20
2019-04-03T17:38:47.190Z,10.10
2019-04-03T17:41:12.984Z,10.10
2019-04-03T17:43:39.221Z,10.00
2019-04-03T17:46:05.398Z,10.00
2019-04-03T17:48:31.533Z,10.00
2019-04-03T17:50:57.781Z,9.90
2019-04-03T17:53:24.095Z,9.80
2019-04-03T17:55:50.235Z,9.70
2019-04-03T17:58:16.889Z,9.70
2019-04-03T18:00:43.877Z,9.60
2019-04-03T18:03:09.996Z,9.60
2019-04-03T18:05:36.126Z,9.50
2019-04-03T18:08:02.289Z,9.40
2019-04-03T18:10:28.405Z,9.40
2019-04-03T18:12:54.662Z,9.30
2019-04-03T18:15:20.850Z,9.20
2019-04-03T18:17:46.978Z,9.20
2019-04-03T18:20:13.546Z,9.10
2019-04-03T18:22:40.441Z,9.00
2019-04-03T18:25:08.356Z,9.00
2019-04-03T18:27:34.930Z,8.90
2019-04-03T18:30:01.224Z,8.90
2019-04-03T18:32:29.768Z,8.80
2019-04-03T18:34:55.706Z,8.80
2019-04-03T18:37:21.868Z,8.80
2019-04-03T18:39:48.171Z,8.70
2019-04-03T18:42:14.475Z,8.70
2019-04-03T18:44:40.726Z,8.70
2019-04-03T18:47:07.317Z,8.70
2019-04-03T18:49:33.719Z,8.70
2019-04-03T18:51:59.826Z,8.70
2019-04-03T18:54:26.045Z,8.70
2019-04-03T18:56:52.491Z,8.70
2019-04-03T18:59:18.678Z,8.70
2019-04-03T19:01:44.789Z,8.70
2019-04-03T19:04:10.905Z,8.70
2019-04-03T19:06:37.394Z,8.70
2019-04-03T19:09:09.947Z,8.70
2019-04-03T19:11:34.609Z,8.70
2019-04-03T19:14:00.801Z,8.70
2019-04-03T19:16:29.835Z,8.70
2019-04-03T19:19:07.086Z,8.70
2019-04-03T19:21:28.304Z,8.70
2019-04-03T19:23:53.633Z,8.80
2019-04-03T19:26:19.122Z,8.80
2019-04-03T19:28:45.247Z,8.80
2019-04-03T19:31:11.472Z,8.80
2019-04-03T19:33:37.760Z,8.80
2019-04-03T19:36:04.146Z,8.80
2019-04-03T19:38:30.527Z,8.80
2019-04-03T19:40:56.701Z,8.80
2019-04-03T19:43:22.791Z,8.70
2019-04-03T19:45:49.902Z,8.70
2019-04-03T19:48:17.047Z,8.70
2019-04-03T19:50:43.181Z,8.70
2019-04-03T19:53:12.963Z,8.70
2019-04-03T19:55:37.688Z,8.70
2019-04-03T19:58:03.815Z,8.80
2019-04-03T20:00:30.151Z,8.70
2019-04-03T20:02:56.346Z,8.70
2019-04-03T20:05:22.448Z,8.70
2019-04-03T20:07:48.595Z,8.70
2019-04-03T20:10:14.696Z,8.60
2019-04-03T20:12:40.826Z,8.60
2019-04-03T20:15:07.542Z,8.50
2019-04-03T20:17:34.802Z,8.50
2019-04-03T20:20:01.154Z,8.50
2019-04-03T20:22:27.251Z,8.50
2019-04-03T20:24:59.814Z,8.50
2019-04-03T20:27:21.411Z,8.50
2019-04-03T20:29:47.561Z,8.50
2019-04-03T20:32:13.734Z,8.50
2019-04-03T20:34:39.838Z,8.50
2019-04-03T20:37:06.151Z,8.50
2019-04-03T20:39:33.887Z,8.50
2019-04-03T20:42:03.051Z,8.40
2019-04-03T20:44:28.345Z,8.40
2019-04-03T20:46:55.939Z,8.30
2019-04-03T20:49:22.535Z,8.30
2019-04-03T20:51:48.823Z,8.30
2019-04-03T20:54:21.367Z,8.20
2019-04-03T20:56:57.804Z,8.20
2019-04-03T20:59:16.245Z,8.20
2019-04-03T21:01:42.491Z,8.20
2019-04-03T21:04:08.707Z,8.20
2019-04-03T21:06:37.112Z,8.20
2019-04-03T21:09:05.719Z,8.20
2019-04-03T21:11:32.650Z,8.10
2019-04-03T21:14:00.131Z,8.10
2019-04-03T21:16:33.252Z,8.10
2019-04-03T21:18:54.621Z,8.10
2019-04-03T21:21:20.739Z,8.00
2019-04-03T21:23:46.902Z,8.00
2019-04-03T21:26:13.090Z,8.00
2019-04-03T21:28:40.951Z,8.00
2019-04-03T21:31:07.289Z,8.00
2019-04-03T21:33:33.528Z,8.00
2019-04-03T21:35:59.682Z,8.00
2019-04-03T21:38:25.869Z,8.00
2019-04-03T21:40:52.098Z,8.00
2019-04-03T21:43:18.280Z,8.00
2019-04-03T21:45:44.516Z,7.90
2019-04-03T21:48:11.948Z,7.90
2019-04-03T21:50:38.928Z,7.90
2019-04-03T21:53:05.273Z,7.80
2019-04-03T21:55:31.555Z,7.80
2019-04-03T21:57:58.593Z,7.80
2019-04-03T22:00:58.651Z,7.80
2019-04-03T22:03:25.270Z,7.70
2019-04-03T22:05:51.397Z,7.70
2019-04-03T22:08:17.549Z,7.70
2019-04-03T22:10:43.870Z,7.70
2019-04-03T22:13:09.966Z,7.70
2019-04-03T22:15:36.074Z,7.70
2019-04-03T22:18:02.205Z,7.70
2019-04-03T22:20:29.573Z,7.70
2019-04-03T22:22:56.322Z,7.70
2019-04-03T22:25:22.427Z,7.60
2019-04-03T22:27:48.562Z,7.60
2019-04-03T22:30:14.665Z,7.60
2019-04-03T22:32:40.894Z,7.50
2019-04-03T22:35:07.301Z,7.50
2019-04-03T22:37:35.126Z,7.50
2019-04-03T22:40:01.512Z,7.50
2019-04-03T22:42:27.614Z,7.50
2019-04-03T22:44:53.715Z,7.50
2019-04-03T22:47:19.858Z,7.50
2019-04-03T22:49:46.383Z,7.40
2019-04-03T22:52:12.512Z,7.40
2019-04-03T22:54:38.638Z,7.30
2019-04-03T22:57:04.786Z,7.30
2019-04-03T22:59:30.966Z,7.30
2019-04-03T23:01:57.052Z,7.30
2019-04-03T23:04:23.157Z,7.20
2019-04-03T23:06:49.716Z,7.20
2019-04-03T23:09:16.684Z,7.20
2019-04-03T23:11:42.885Z,7.20
2019-04-03T23:14:09.102Z,7.20
2019-04-03T23:16:35.302Z,7.20
2019-04-03T23:19:01.386Z,7.20
2019-04-03T23:21:27.505Z,7.10
2019-04-03T23:23:53.605Z,7.10
2019-04-03T23:26:19.726Z,7.10
2019-04-03T23:28:45.931Z,7.10
2019-04-03T23:31:13.050Z,7.10
2019-04-03T23:33:39.805Z,7.00
2019-04-03T23:36:06.009Z,7.00
2019-04-03T23:38:32.108Z,7.00
2019-04-03T23:40:58.299Z,7.00
2019-04-03T23:43:24.430Z,7.00
2019-04-03T23:45:50.603Z,7.00
2019-04-03T23:48:18.340Z,7.00
2019-04-03T23:50:44.842Z,7.00
2019-04-03T23:53:10.959Z,6.90
2019-04-03T23:55:37.056Z,6.90
2019-04-03T23:58:03.288Z,6.90
